createdAt,value
2018-12-02T00:00:24.269Z,24.75
2018-12-02T00:00:59.923Z,25.52
2018-12-02T00:01:35.324Z,25.00
2018-12-02T00:02:10.897Z,25.26
2018-12-02T00:02:46.182Z,24.74
2018-12-02T00:03:21.859Z,24.70
2018-12-02T00:03:57.313Z,24.79
2018-12-02T00:04:33.058Z,25.15
2018-12-02T00:05:10.299Z,25.29
2018-12-02T00:05:45.874Z,24.93
2018-12-02T00:06:21.398Z,25.07
2018-12-02T00:06:56.834Z,24.67
2018-12-02T00:07:31.965Z,24.96
2018-12-02T00:08:08.583Z,25.15
2018-12-02T00:08:44.082Z,25.22
2018-12-02T00:09:19.603Z,25.28
2018-12-02T00:09:55.177Z,25.21
2018-12-02T00:10:30.573Z,24.91
2018-12-02T00:11:06.299Z,25.35
2018-12-02T00:11:42.076Z,25.22
2018-12-02T00:12:17.430Z,24.93
2018-12-02T00:12:53.078Z,24.99
2018-12-02T00:13:28.667Z,25.04
2018-12-02T00:14:04.324Z,24.47
2018-12-02T00:14:39.714Z,24.47
2018-12-02T00:15:16.754Z,24.74
2018-12-02T00:15:52.232Z,25.04
2018-12-02T00:16:27.605Z,25.11
2018-12-02T00:17:03.254Z,25.34
2018-12-02T00:17:38.778Z,25.06
2018-12-02T00:18:15.414Z,25.12
2018-12-02T00:18:51.060Z,24.66
2018-12-02T00:19:26.491Z,25.26
2018-12-02T00:20:01.919Z,25.05
2018-12-02T00:20:37.430Z,25.24
2018-12-02T00:21:12.968Z,25.25
2018-12-02T00:21:48.296Z,24.89
2018-12-02T00:22:24.288Z,25.53
2018-12-02T00:22:59.826Z,24.89
2018-12-02T00:23:35.283Z,25.21
2018-12-02T00:24:10.717Z,25.59
2018-12-02T00:24:46.298Z,24.97
2018-12-02T00:25:21.874Z,25.54
2018-12-02T00:25:57.506Z,25.43
2018-12-02T00:26:33.062Z,25.09
2018-12-02T00:27:08.279Z,25.32
2018-12-02T00:27:44.979Z,25.44
2018-12-02T00:28:21.039Z,25.07
2018-12-02T00:28:56.721Z,25.36
2018-12-02T00:29:32.184Z,25.00
2018-12-02T00:30:13.030Z,25.61
2018-12-02T00:30:48.686Z,25.18
2018-12-02T00:31:24.302Z,25.75
2018-12-02T00:31:59.716Z,25.23
2018-12-02T00:32:35.005Z,25.62
2018-12-02T00:33:10.521Z,25.44
2018-12-02T00:33:45.974Z,25.47
2018-12-02T00:34:21.439Z,25.85
2018-12-02T00:34:57.058Z,25.52
2018-12-02T00:35:32.458Z,25.45
2018-12-02T00:36:08.366Z,25.73
2018-12-02T00:36:43.938Z,24.94
2018-12-02T00:37:19.486Z,25.28
2018-12-02T00:38:00.632Z,25.53
2018-12-02T00:38:36.159Z,25.49
2018-12-02T00:39:11.592Z,25.11
2018-12-02T00:39:47.116Z,24.92
2018-12-02T00:40:23.862Z,25.08
2018-12-02T00:40:59.228Z,25.45
2018-12-02T00:41:34.784Z,25.08
2018-12-02T00:42:10.068Z,25.03
2018-12-02T00:42:51.355Z,25.67
2018-12-02T00:43:26.616Z,25.74
2018-12-02T00:44:02.483Z,25.46
2018-12-02T00:44:38.074Z,25.41
2018-12-02T00:45:14.784Z,25.53
2018-12-02T00:45:50.375Z,25.12
2018-12-02T00:46:26.074Z,24.90
2018-12-02T00:47:01.693Z,25.33
2018-12-02T00:47:37.300Z,24.86
2018-12-02T00:48:12.802Z,24.94
2018-12-02T00:48:48.270Z,25.14
2018-12-02T00:49:23.519Z,25.10
2018-12-02T00:49:58.973Z,25.16
2018-12-02T00:50:34.440Z,24.92
2018-12-02T00:51:10.124Z,24.96
2018-12-02T00:51:45.652Z,25.36
2018-12-02T00:52:20.990Z,25.15
2018-12-02T00:52:58.145Z,25.17
2018-12-02T00:53:33.733Z,25.48
2018-12-02T00:54:09.225Z,25.44
2018-12-02T00:54:44.557Z,25.54
2018-12-02T00:55:22.867Z,25.55
2018-12-02T00:56:02.721Z,25.13
2018-12-02T00:56:38.657Z,25.18
2018-12-02T00:57:14.056Z,25.53
2018-12-02T00:57:49.909Z,25.08
2018-12-02T00:58:25.349Z,25.30
2018-12-02T00:59:00.868Z,25.17
2018-12-02T00:59:36.245Z,25.18
2018-12-02T01:00:13.315Z,25.53
2018-12-02T01:00:48.819Z,25.22
2018-12-02T01:01:24.345Z,25.24
2018-12-02T01:01:59.635Z,25.34
2018-12-02T01:02:35.161Z,25.02
2018-12-02T01:03:11.721Z,25.21
2018-12-02T01:03:47.172Z,25.54
2018-12-02T01:04:22.538Z,25.28
2018-12-02T01:04:58.271Z,25.19
2018-12-02T01:05:33.796Z,25.20
2018-12-02T01:06:09.421Z,25.15
2018-12-02T01:06:44.881Z,25.25
2018-12-02T01:07:20.356Z,25.33
2018-12-02T01:07:55.871Z,25.47
2018-12-02T01:08:31.439Z,25.58
2018-12-02T01:09:07.825Z,25.33
2018-12-02T01:09:43.272Z,25.30
2018-12-02T01:10:20.906Z,25.65
2018-12-02T01:10:56.412Z,25.48
2018-12-02T01:11:31.982Z,24.96
2018-12-02T01:12:07.384Z,25.40
2018-12-02T01:12:42.752Z,25.33
2018-12-02T01:13:18.010Z,25.46
2018-12-02T01:13:53.643Z,24.98
2018-12-02T01:14:29.136Z,25.81
2018-12-02T01:15:04.503Z,25.63
2018-12-02T01:15:41.835Z,25.60
2018-12-02T01:16:17.354Z,25.20
2018-12-02T01:16:52.616Z,25.76
2018-12-02T01:17:27.909Z,25.30
2018-12-02T01:18:03.261Z,25.80
2018-12-02T01:18:38.944Z,25.31
2018-12-02T01:19:14.435Z,25.55
2018-12-02T01:19:49.952Z,25.44
2018-12-02T01:20:26.039Z,25.37
2018-12-02T01:21:01.758Z,25.66
2018-12-02T01:21:37.248Z,25.29
2018-12-02T01:22:12.676Z,25.27
2018-12-02T01:22:48.077Z,25.51
2018-12-02T01:23:23.836Z,25.35
2018-12-02T01:23:59.212Z,25.23
2018-12-02T01:24:34.601Z,25.71
2018-12-02T01:25:11.993Z,25.60
2018-12-02T01:25:47.530Z,25.57
2018-12-02T01:26:23.017Z,25.70
2018-12-02T01:26:58.574Z,25.28
2018-12-02T01:27:34.056Z,25.54
2018-12-02T01:28:09.754Z,25.47
2018-12-02T01:28:45.809Z,25.77
2018-12-02T01:29:21.494Z,25.54
2018-12-02T01:29:56.811Z,25.50
2018-12-02T01:30:32.163Z,25.75
2018-12-02T01:31:07.869Z,25.10
2018-12-02T01:31:43.596Z,25.31
2018-12-02T01:32:19.129Z,25.27
2018-12-02T01:32:56.530Z,25.17
2018-12-02T01:33:32.065Z,25.36
2018-12-02T01:34:07.935Z,25.23
2018-12-02T01:34:43.461Z,25.33
2018-12-02T01:35:19.820Z,25.39
2018-12-02T01:35:55.177Z,25.89
2018-12-02T01:36:30.463Z,25.51
2018-12-02T01:37:06.327Z,25.22
2018-12-02T01:37:42.874Z,25.56
2018-12-02T01:38:18.342Z,25.57
2018-12-02T01:38:53.603Z,25.49
2018-12-02T01:39:29.154Z,25.66
2018-12-02T01:40:04.451Z,25.36
2018-12-02T01:40:39.894Z,25.25
2018-12-02T01:41:15.361Z,25.32
2018-12-02T01:41:50.901Z,25.37
2018-12-02T01:42:26.533Z,25.64
2018-12-02T01:43:02.017Z,25.56
2018-12-02T01:43:37.349Z,25.45
2018-12-02T01:44:12.654Z,25.51
2018-12-02T01:44:48.518Z,25.31
2018-12-02T01:45:26.241Z,25.28
2018-12-02T01:46:01.767Z,25.36
2018-12-02T01:46:37.120Z,25.49
2018-12-02T01:47:12.752Z,25.14
2018-12-02T01:47:48.328Z,25.55
2018-12-02T01:48:23.853Z,25.54
2018-12-02T01:48:59.260Z,25.28
2018-12-02T01:49:34.610Z,25.38
2018-12-02T01:50:14.612Z,25.19
2018-12-02T01:50:50.167Z,25.86
2018-12-02T01:51:25.596Z,25.25
2018-12-02T01:52:00.811Z,25.65
2018-12-02T01:52:36.222Z,25.67
2018-12-02T01:53:11.634Z,25.73
2018-12-02T01:53:46.951Z,25.58
2018-12-02T01:54:22.583Z,25.40
2018-12-02T01:54:57.956Z,25.96
2018-12-02T01:55:33.295Z,25.33
2018-12-02T01:56:08.604Z,25.45
2018-12-02T01:56:43.899Z,25.33
2018-12-02T01:57:19.854Z,25.77
2018-12-02T01:57:55.228Z,25.68
2018-12-02T01:58:30.710Z,26.02
2018-12-02T01:59:06.838Z,26.04
2018-12-02T01:59:42.458Z,25.80
2018-12-02T02:00:20.630Z,26.07
2018-12-02T02:00:55.997Z,26.01
2018-12-02T02:01:31.376Z,25.64
2018-12-02T02:02:07.845Z,26.26
2018-12-02T02:02:43.321Z,26.24
2018-12-02T02:03:19.089Z,25.94
2018-12-02T02:03:54.483Z,25.86
2018-12-02T02:04:29.912Z,25.74
2018-12-02T02:05:05.665Z,26.01
2018-12-02T02:05:41.198Z,25.43
2018-12-02T02:06:16.583Z,25.73
2018-12-02T02:06:52.080Z,25.38
2018-12-02T02:07:27.383Z,25.87
2018-12-02T02:08:02.713Z,25.99
2018-12-02T02:08:39.512Z,25.97
2018-12-02T02:09:15.789Z,25.79
2018-12-02T02:09:51.226Z,25.62
2018-12-02T02:10:29.413Z,25.59
2018-12-02T02:11:04.851Z,25.69
2018-12-02T02:11:40.598Z,25.58
2018-12-02T02:12:16.171Z,25.82
2018-12-02T02:12:51.602Z,25.94
2018-12-02T02:13:27.197Z,26.05
2018-12-02T02:14:02.652Z,26.08
2018-12-02T02:14:38.070Z,25.78
2018-12-02T02:15:15.441Z,25.22
2018-12-02T02:15:50.763Z,25.51
2018-12-02T02:16:26.429Z,25.74
2018-12-02T02:17:01.916Z,25.41
2018-12-02T02:17:37.531Z,25.39
2018-12-02T02:18:13.086Z,25.50
2018-12-02T02:18:48.489Z,25.41
2018-12-02T02:19:24.082Z,25.97
2018-12-02T02:19:59.520Z,26.15
2018-12-02T02:20:34.823Z,25.86
2018-12-02T02:21:10.448Z,25.69
2018-12-02T02:21:46.093Z,26.12
2018-12-02T02:22:21.615Z,25.62
2018-12-02T02:22:57.268Z,25.55
2018-12-02T02:23:32.548Z,26.02
2018-12-02T02:24:08.409Z,25.80
2018-12-02T02:24:43.724Z,25.88
2018-12-02T02:25:20.857Z,25.60
2018-12-02T02:25:56.301Z,25.85
2018-12-02T02:26:31.638Z,26.14
2018-12-02T02:27:07.500Z,26.04
2018-12-02T02:27:44.465Z,25.68
2018-12-02T02:28:20.146Z,26.14
2018-12-02T02:28:55.933Z,26.17
2018-12-02T02:29:31.601Z,25.59
2018-12-02T02:30:11.875Z,25.61
2018-12-02T02:30:47.480Z,26.10
2018-12-02T02:31:22.841Z,25.47
2018-12-02T02:31:58.357Z,25.76
2018-12-02T02:32:33.710Z,25.79
2018-12-02T02:33:09.266Z,25.62
2018-12-02T02:33:44.692Z,26.12
2018-12-02T02:34:20.085Z,26.12
2018-12-02T02:34:55.754Z,25.58
2018-12-02T02:35:31.229Z,25.57
2018-12-02T02:36:06.996Z,25.44
2018-12-02T02:36:42.439Z,25.58
2018-12-02T02:37:17.906Z,25.94
2018-12-02T02:37:54.879Z,25.72
2018-12-02T02:38:30.286Z,26.03
2018-12-02T02:39:07.387Z,26.05
2018-12-02T02:39:42.937Z,26.18
2018-12-02T02:40:24.011Z,25.74
2018-12-02T02:40:59.548Z,25.75
2018-12-02T02:41:35.350Z,25.84
2018-12-02T02:42:10.992Z,25.93
2018-12-02T02:42:46.340Z,25.73
2018-12-02T02:43:21.823Z,25.92
2018-12-02T02:43:57.540Z,25.87
2018-12-02T02:44:33.066Z,25.38
2018-12-02T02:45:09.577Z,25.36
2018-12-02T02:45:44.981Z,25.81
2018-12-02T02:46:20.449Z,25.76
2018-12-02T02:46:56.075Z,25.79
2018-12-02T02:47:31.556Z,25.90
2018-12-02T02:48:07.683Z,25.59
2018-12-02T02:48:43.188Z,25.79
2018-12-02T02:49:18.622Z,26.01
2018-12-02T02:49:54.153Z,25.55
2018-12-02T02:50:29.540Z,25.55
2018-12-02T02:51:04.944Z,25.70
2018-12-02T02:51:40.583Z,25.59
2018-12-02T02:52:16.908Z,25.58
2018-12-02T02:52:57.233Z,25.64
2018-12-02T02:53:32.810Z,25.22
2018-12-02T02:54:08.739Z,25.79
2018-12-02T02:54:43.880Z,25.97
2018-12-02T02:55:19.441Z,25.51
2018-12-02T02:55:54.872Z,25.53
2018-12-02T02:56:30.301Z,25.71
2018-12-02T02:57:05.846Z,25.86
2018-12-02T02:57:41.328Z,26.05
2018-12-02T02:58:16.829Z,26.12
2018-12-02T02:58:52.495Z,25.96
2018-12-02T02:59:27.852Z,25.84
2018-12-02T03:00:03.490Z,25.29
2018-12-02T03:00:38.922Z,25.85
2018-12-02T03:01:14.367Z,25.62
2018-12-02T03:01:49.635Z,25.93
2018-12-02T03:02:25.290Z,25.97
2018-12-02T03:03:00.984Z,26.15
2018-12-02T03:03:36.421Z,25.71
2018-12-02T03:04:11.697Z,25.44
2018-12-02T03:04:47.381Z,25.82
2018-12-02T03:05:23.509Z,25.61
2018-12-02T03:05:59.161Z,26.07
2018-12-02T03:06:34.841Z,25.67
2018-12-02T03:07:10.204Z,25.72
2018-12-02T03:07:45.780Z,25.97
2018-12-02T03:08:21.474Z,25.89
2018-12-02T03:08:57.438Z,25.32
2018-12-02T03:09:32.955Z,26.12
2018-12-02T03:10:13.694Z,25.98
2018-12-02T03:10:49.038Z,25.66
2018-12-02T03:11:24.510Z,26.27
2018-12-02T03:12:00.083Z,25.58
2018-12-02T03:12:35.409Z,26.27
2018-12-02T03:13:10.967Z,25.81
2018-12-02T03:13:46.410Z,26.13
2018-12-02T03:14:21.902Z,25.85
2018-12-02T03:14:57.481Z,25.71
2018-12-02T03:15:33.045Z,25.81
2018-12-02T03:16:08.411Z,26.13
2018-12-02T03:16:44.029Z,25.66
2018-12-02T03:17:19.592Z,25.66
2018-12-02T03:17:55.196Z,25.60
2018-12-02T03:18:31.392Z,25.62
2018-12-02T03:19:06.818Z,26.11
2018-12-02T03:19:42.323Z,25.92
2018-12-02T03:20:19.500Z,25.61
2018-12-02T03:20:54.923Z,25.82
2018-12-02T03:21:37.418Z,25.82
2018-12-02T03:22:12.865Z,25.83
2018-12-02T03:22:50.631Z,25.59
2018-12-02T03:23:25.925Z,26.21
2018-12-02T03:24:01.263Z,26.07
2018-12-02T03:24:36.682Z,25.92
2018-12-02T03:25:13.831Z,25.65
2018-12-02T03:25:49.300Z,25.74
2018-12-02T03:26:24.674Z,25.62
2018-12-02T03:27:01.356Z,25.83
2018-12-02T03:27:36.955Z,26.14
2018-12-02T03:28:12.333Z,25.67
2018-12-02T03:28:47.916Z,25.77
2018-12-02T03:29:24.137Z,25.93
2018-12-02T03:29:59.552Z,25.80
2018-12-02T03:30:34.985Z,25.87
2018-12-02T03:31:10.485Z,26.08
2018-12-02T03:31:46.045Z,26.24
2018-12-02T03:32:21.328Z,25.90
2018-12-02T03:32:56.895Z,26.08
2018-12-02T03:33:32.263Z,26.14
2018-12-02T03:34:07.739Z,25.44
2018-12-02T03:34:43.109Z,25.56
2018-12-02T03:35:21.288Z,25.29
2018-12-02T03:35:57.043Z,25.28
2018-12-02T03:36:32.482Z,25.21
2018-12-02T03:37:08.021Z,25.72
2018-12-02T03:37:43.533Z,25.65
2018-12-02T03:38:19.002Z,25.65
2018-12-02T03:38:54.419Z,25.37
2018-12-02T03:39:29.907Z,25.41
2018-12-02T03:40:06.356Z,25.56
2018-12-02T03:40:41.893Z,25.52
2018-12-02T03:41:17.517Z,25.42
2018-12-02T03:41:53.077Z,26.00
2018-12-02T03:42:28.524Z,25.44
2018-12-02T03:43:03.857Z,25.75
2018-12-02T03:43:39.431Z,25.67
2018-12-02T03:44:14.985Z,25.93
2018-12-02T03:44:50.326Z,25.58
2018-12-02T03:45:27.691Z,25.98
2018-12-02T03:46:03.107Z,25.79
2018-12-02T03:46:38.404Z,25.34
2018-12-02T03:47:14.021Z,25.57
2018-12-02T03:47:49.259Z,25.55
2018-12-02T03:48:24.644Z,25.52
2018-12-02T03:49:00.056Z,25.50
2018-12-02T03:49:35.412Z,25.43
2018-12-02T03:50:19.779Z,25.58
2018-12-02T03:50:55.228Z,25.86
2018-12-02T03:51:30.625Z,25.83
2018-12-02T03:52:06.386Z,25.19
2018-12-02T03:52:41.799Z,25.54
2018-12-02T03:53:17.110Z,25.33
2018-12-02T03:53:52.523Z,25.48
2018-12-02T03:54:28.041Z,25.72
2018-12-02T03:55:04.001Z,25.72
2018-12-02T03:55:39.911Z,25.08
2018-12-02T03:56:20.019Z,25.51
2018-12-02T03:56:55.462Z,25.87
2018-12-02T03:57:30.795Z,25.53
2018-12-02T03:58:06.434Z,25.88
2018-12-02T03:58:41.693Z,25.19
2018-12-02T03:59:17.315Z,25.74
2018-12-02T03:59:52.754Z,25.78
2018-12-02T04:00:28.219Z,25.20
2018-12-02T04:01:03.521Z,25.55
2018-12-02T04:01:39.103Z,25.13
2018-12-02T04:02:14.317Z,24.91
2018-12-02T04:02:50.076Z,24.87
2018-12-02T04:03:25.747Z,24.91
2018-12-02T04:04:01.081Z,25.06
2018-12-02T04:04:36.557Z,25.21
2018-12-02T04:05:13.313Z,26.03
2018-12-02T04:05:48.733Z,25.64
2018-12-02T04:06:24.083Z,25.72
2018-12-02T04:06:59.467Z,26.00
2018-12-02T04:07:35.153Z,26.29
2018-12-02T04:08:10.958Z,25.85
2018-12-02T04:08:46.135Z,25.84
2018-12-02T04:09:21.570Z,26.07
2018-12-02T04:09:57.207Z,26.12
2018-12-02T04:10:32.453Z,25.65
2018-12-02T04:11:08.049Z,25.67
2018-12-02T04:11:43.501Z,25.97
2018-12-02T04:12:19.175Z,25.70
2018-12-02T04:12:54.858Z,25.21
2018-12-02T04:13:30.332Z,25.57
2018-12-02T04:14:05.914Z,25.60
2018-12-02T04:14:41.487Z,25.27
2018-12-02T04:15:17.859Z,25.32
2018-12-02T04:15:53.224Z,25.30
2018-12-02T04:16:28.666Z,25.61
2018-12-02T04:17:04.114Z,25.18
2018-12-02T04:17:39.552Z,25.17
2018-12-02T04:18:14.986Z,25.54
2018-12-02T04:18:50.440Z,25.50
2018-12-02T04:19:26.218Z,25.11
2018-12-02T04:20:01.592Z,25.50
2018-12-02T04:20:37.266Z,25.21
2018-12-02T04:21:12.875Z,24.85
2018-12-02T04:21:48.808Z,25.44
2018-12-02T04:22:24.057Z,25.22
2018-12-02T04:22:59.803Z,24.85
2018-12-02T04:23:35.460Z,25.60
2018-12-02T04:24:10.620Z,25.34
2018-12-02T04:24:46.313Z,25.39
2018-12-02T04:25:27.066Z,24.87
2018-12-02T04:26:02.493Z,24.92
2018-12-02T04:26:38.041Z,25.27
2018-12-02T04:27:13.289Z,25.58
2018-12-02T04:27:49.133Z,25.27
2018-12-02T04:28:24.593Z,25.35
2018-12-02T04:29:00.137Z,25.29
2018-12-02T04:29:36.049Z,25.05
2018-12-02T04:30:14.211Z,25.51
2018-12-02T04:30:49.962Z,25.08
2018-12-02T04:31:25.417Z,25.38
2018-12-02T04:32:07.926Z,25.28
2018-12-02T04:32:43.367Z,25.39
2018-12-02T04:33:18.969Z,25.50
2018-12-02T04:33:54.404Z,24.91
2018-12-02T04:34:30.812Z,24.95
2018-12-02T04:35:07.260Z,25.59
2018-12-02T04:35:42.860Z,25.39
2018-12-02T04:36:18.337Z,24.87
2018-12-02T04:36:53.660Z,25.52
2018-12-02T04:37:29.319Z,25.45
2018-12-02T04:38:04.702Z,24.79
2018-12-02T04:38:40.260Z,25.25
2018-12-02T04:39:15.910Z,25.00
2018-12-02T04:39:51.491Z,25.48
2018-12-02T04:40:26.897Z,25.47
2018-12-02T04:41:02.317Z,24.95
2018-12-02T04:41:37.897Z,25.48
2018-12-02T04:42:13.535Z,25.08
2018-12-02T04:42:48.982Z,25.66
2018-12-02T04:43:24.481Z,25.22
2018-12-02T04:44:00.022Z,25.66
2018-12-02T04:44:35.483Z,25.76
2018-12-02T04:45:13.711Z,25.64
2018-12-02T04:45:49.160Z,25.81
2018-12-02T04:46:24.527Z,25.76
2018-12-02T04:47:00.002Z,25.42
2018-12-02T04:47:35.406Z,25.31
2018-12-02T04:48:10.846Z,25.81
2018-12-02T04:48:46.268Z,25.30
2018-12-02T04:49:21.896Z,25.85
2018-12-02T04:49:57.592Z,25.76
2018-12-02T04:50:33.223Z,25.34
2018-12-02T04:51:08.819Z,25.64
2018-12-02T04:51:44.122Z,25.49
2018-12-02T04:52:19.829Z,25.48
2018-12-02T04:52:55.385Z,25.30
2018-12-02T04:53:30.856Z,25.64
2018-12-02T04:54:06.462Z,25.37
2018-12-02T04:54:42.117Z,25.39
2018-12-02T04:55:17.627Z,25.49
2018-12-02T04:55:52.977Z,25.51
2018-12-02T04:56:28.395Z,25.49
2018-12-02T04:57:03.801Z,25.35
2018-12-02T04:57:39.166Z,25.84
2018-12-02T04:58:14.689Z,25.85
2018-12-02T04:58:50.043Z,25.76
2018-12-02T04:59:25.514Z,25.50
2018-12-02T05:00:00.810Z,25.36
2018-12-02T05:00:36.473Z,25.41
2018-12-02T05:01:11.769Z,25.34
2018-12-02T05:01:47.212Z,25.63
2018-12-02T05:02:22.604Z,25.37
2018-12-02T05:02:58.347Z,25.85
2018-12-02T05:03:33.846Z,25.27
2018-12-02T05:04:09.432Z,25.71
2018-12-02T05:04:45.072Z,25.51
2018-12-02T05:05:26.800Z,25.30
2018-12-02T05:06:02.277Z,25.30
2018-12-02T05:06:37.676Z,26.07
2018-12-02T05:07:14.320Z,25.64
2018-12-02T05:07:49.627Z,25.63
2018-12-02T05:08:25.231Z,25.39
2018-12-02T05:09:00.841Z,25.77
2018-12-02T05:09:36.496Z,25.46
2018-12-02T05:10:17.871Z,25.84
2018-12-02T05:10:53.641Z,25.24
2018-12-02T05:11:29.318Z,25.36
2018-12-02T05:12:05.232Z,25.06
2018-12-02T05:12:41.059Z,25.73
2018-12-02T05:13:16.966Z,25.27
2018-12-02T05:13:52.528Z,24.96
2018-12-02T05:14:28.068Z,25.61
2018-12-02T05:15:03.636Z,25.18
2018-12-02T05:15:39.018Z,25.15
2018-12-02T05:16:14.545Z,25.79
2018-12-02T05:16:50.016Z,25.77
2018-12-02T05:17:25.599Z,25.30
2018-12-02T05:18:01.162Z,25.56
2018-12-02T05:18:36.763Z,25.24
2018-12-02T05:19:12.239Z,25.52
2018-12-02T05:19:47.749Z,25.47
2018-12-02T05:20:24.155Z,25.39
2018-12-02T05:20:59.700Z,25.52
2018-12-02T05:21:35.433Z,26.00
2018-12-02T05:22:11.227Z,25.70
2018-12-02T05:22:46.749Z,25.99
2018-12-02T05:23:22.616Z,26.17
2018-12-02T05:23:58.320Z,25.23
2018-12-02T05:24:34.102Z,25.18
2018-12-02T05:25:16.985Z,25.11
2018-12-02T05:25:47.198Z,25.09
2018-12-02T05:26:22.859Z,25.39
2018-12-02T05:26:59.253Z,25.28
2018-12-02T05:27:34.834Z,24.91
2018-12-02T05:28:10.369Z,24.98
2018-12-02T05:28:46.017Z,25.39
2018-12-02T05:29:21.992Z,25.02
2018-12-02T05:29:57.922Z,25.02
2018-12-02T05:30:33.514Z,24.72
2018-12-02T05:31:09.049Z,24.69
2018-12-02T05:31:44.396Z,25.17
2018-12-02T05:32:20.215Z,24.91
2018-12-02T05:32:56.173Z,24.94
2018-12-02T05:33:31.479Z,24.63
2018-12-02T05:34:07.031Z,25.42
2018-12-02T05:34:42.511Z,25.36
2018-12-02T05:35:17.994Z,25.37
2018-12-02T05:35:53.617Z,24.68
2018-12-02T05:36:28.902Z,24.99
2018-12-02T05:37:04.251Z,25.10
2018-12-02T05:37:39.735Z,25.11
2018-12-02T05:38:15.470Z,25.23
2018-12-02T05:38:51.039Z,25.08
2018-12-02T05:39:26.465Z,25.48
2018-12-02T05:40:02.046Z,25.14
2018-12-02T05:40:37.379Z,25.12
2018-12-02T05:41:12.942Z,25.06
2018-12-02T05:41:52.909Z,25.00
2018-12-02T05:42:33.172Z,25.44
2018-12-02T05:43:08.488Z,25.44
2018-12-02T05:43:44.168Z,25.35
2018-12-02T05:44:19.640Z,25.48
2018-12-02T05:44:55.099Z,25.21
2018-12-02T05:45:30.482Z,24.80
2018-12-02T05:46:06.136Z,25.04
2018-12-02T05:46:41.560Z,25.55
2018-12-02T05:47:16.891Z,25.38
2018-12-02T05:47:52.546Z,25.47
2018-12-02T05:48:27.883Z,24.95
2018-12-02T05:49:03.564Z,25.38
2018-12-02T05:49:39.079Z,25.55
2018-12-02T05:50:21.961Z,25.64
2018-12-02T05:50:57.435Z,25.21
2018-12-02T05:51:33.043Z,24.91
2018-12-02T05:52:08.357Z,25.06
2018-12-02T05:52:44.141Z,25.20
2018-12-02T05:53:19.784Z,25.64
2018-12-02T05:53:55.357Z,25.42
2018-12-02T05:54:30.818Z,25.53
2018-12-02T05:55:08.309Z,25.66
2018-12-02T05:55:43.778Z,25.11
2018-12-02T05:56:19.300Z,25.29
2018-12-02T05:56:54.386Z,25.48
2018-12-02T05:57:29.942Z,25.41
2018-12-02T05:58:05.607Z,25.14
2018-12-02T05:58:41.162Z,25.17
2018-12-02T05:59:16.403Z,25.65
2018-12-02T05:59:52.217Z,25.19
2018-12-02T06:00:27.550Z,24.89
2018-12-02T06:01:02.798Z,25.52
2018-12-02T06:01:41.118Z,25.51
2018-12-02T06:02:17.703Z,25.15
2018-12-02T06:02:52.133Z,25.26
2018-12-02T06:03:27.457Z,25.48
2018-12-02T06:04:03.023Z,25.58
2018-12-02T06:04:38.409Z,25.04
2018-12-02T06:05:14.207Z,25.15
2018-12-02T06:05:49.705Z,25.56
2018-12-02T06:06:25.295Z,24.96
2018-12-02T06:07:00.612Z,25.07
2018-12-02T06:07:36.034Z,24.96
2018-12-02T06:08:11.496Z,25.10
2018-12-02T06:08:47.006Z,24.92
2018-12-02T06:09:22.467Z,25.25
2018-12-02T06:09:57.708Z,25.93
2018-12-02T06:10:33.172Z,24.94
2018-12-02T06:11:08.657Z,25.59
2018-12-02T06:11:44.170Z,25.40
2018-12-02T06:12:19.460Z,25.54
2018-12-02T06:12:54.944Z,25.10
2018-12-02T06:13:30.409Z,25.22
2018-12-02T06:14:05.879Z,25.05
2018-12-02T06:14:41.569Z,25.03
2018-12-02T06:15:18.178Z,25.48
2018-12-02T06:15:53.694Z,25.13
2018-12-02T06:16:29.016Z,25.22
2018-12-02T06:17:04.420Z,25.13
2018-12-02T06:17:40.519Z,25.17
2018-12-02T06:18:15.958Z,25.23
2018-12-02T06:18:51.263Z,25.14
2018-12-02T06:19:26.974Z,25.81
2018-12-02T06:20:04.840Z,25.67
2018-12-02T06:20:37.916Z,25.78
2018-12-02T06:21:13.337Z,25.96
2018-12-02T06:21:52.574Z,25.53
2018-12-02T06:22:27.910Z,25.54
2018-12-02T06:23:03.231Z,26.02
2018-12-02T06:23:38.822Z,25.60
2018-12-02T06:24:14.231Z,25.52
2018-12-02T06:24:49.996Z,25.96
2018-12-02T06:25:25.280Z,25.43
2018-12-02T06:26:00.829Z,26.07
2018-12-02T06:26:36.365Z,25.80
2018-12-02T06:27:11.846Z,25.85
2018-12-02T06:27:47.493Z,26.02
2018-12-02T06:28:23.031Z,25.67
2018-12-02T06:28:58.295Z,25.75
2018-12-02T06:29:33.912Z,25.43
2018-12-02T06:30:17.013Z,25.66
2018-12-02T06:30:56.888Z,25.52
2018-12-02T06:31:32.631Z,26.14
2018-12-02T06:32:07.987Z,25.59
2018-12-02T06:32:43.482Z,25.89
2018-12-02T06:33:18.966Z,25.65
2018-12-02T06:33:54.442Z,25.60
2018-12-02T06:34:29.903Z,25.97
2018-12-02T06:35:05.093Z,25.91
2018-12-02T06:35:41.228Z,26.14
2018-12-02T06:36:16.669Z,26.12
2018-12-02T06:36:52.079Z,25.59
2018-12-02T06:37:27.644Z,25.88
2018-12-02T06:38:04.882Z,26.17
2018-12-02T06:38:40.356Z,26.22
2018-12-02T06:39:16.498Z,26.09
2018-12-02T06:39:51.931Z,26.22
2018-12-02T06:40:28.921Z,25.82
2018-12-02T06:41:04.450Z,25.67
2018-12-02T06:41:40.860Z,25.77
2018-12-02T06:42:16.210Z,25.53
2018-12-02T06:42:52.161Z,25.56
2018-12-02T06:43:27.707Z,26.11
2018-12-02T06:44:03.270Z,26.21
2018-12-02T06:44:38.672Z,26.01
2018-12-02T06:45:14.648Z,25.95
2018-12-02T06:45:50.027Z,25.45
2018-12-02T06:46:25.537Z,26.26
2018-12-02T06:47:00.988Z,26.06
2018-12-02T06:47:36.388Z,25.86
2018-12-02T06:48:11.865Z,25.53
2018-12-02T06:48:47.341Z,25.49
2018-12-02T06:49:22.648Z,25.60
2018-12-02T06:49:57.957Z,25.45
2018-12-02T06:50:33.323Z,26.03
2018-12-02T06:51:08.771Z,25.67
2018-12-02T06:51:44.463Z,25.96
2018-12-02T06:52:19.733Z,25.91
2018-12-02T06:52:56.090Z,25.95
2018-12-02T06:53:31.609Z,25.64
2018-12-02T06:54:07.208Z,25.50
2018-12-02T06:54:42.489Z,26.00
2018-12-02T06:55:26.710Z,26.11
2018-12-02T06:56:10.126Z,25.82
2018-12-02T06:56:45.635Z,25.63
2018-12-02T06:57:21.016Z,25.97
2018-12-02T06:58:06.478Z,26.08
2018-12-02T06:58:51.739Z,25.51
2018-12-02T06:59:35.966Z,26.01
2018-12-02T07:00:23.822Z,25.46
2018-12-02T07:01:09.477Z,25.71
2018-12-02T07:01:52.763Z,25.64
2018-12-02T07:02:35.056Z,25.75
2018-12-02T07:03:18.236Z,26.29
2018-12-02T07:03:58.568Z,26.21
2018-12-02T07:04:37.422Z,26.26
2018-12-02T07:05:13.611Z,26.04
2018-12-02T07:05:49.447Z,25.71
2018-12-02T07:06:24.766Z,26.21
2018-12-02T07:07:01.053Z,26.22
2018-12-02T07:07:36.401Z,25.56
2018-12-02T07:08:11.741Z,25.86
2018-12-02T07:08:47.018Z,25.86
2018-12-02T07:09:22.532Z,25.57
2018-12-02T07:09:58.074Z,26.03
2018-12-02T07:10:33.316Z,25.67
2018-12-02T07:11:08.719Z,26.05
2018-12-02T07:11:44.182Z,25.44
2018-12-02T07:12:19.395Z,26.13
2018-12-02T07:12:54.755Z,25.98
2018-12-02T07:13:30.195Z,25.78
2018-12-02T07:14:06.005Z,26.14
2018-12-02T07:14:41.940Z,25.85
2018-12-02T07:15:17.466Z,25.59
2018-12-02T07:15:52.920Z,25.61
2018-12-02T07:16:28.307Z,25.63
2018-12-02T07:17:03.631Z,25.78
2018-12-02T07:17:39.030Z,25.68
2018-12-02T07:18:17.227Z,25.71
2018-12-02T07:18:52.926Z,25.50
2018-12-02T07:19:31.811Z,26.08
2018-12-02T07:20:09.531Z,26.32
2018-12-02T07:20:44.864Z,25.84
2018-12-02T07:21:20.811Z,25.87
2018-12-02T07:22:02.769Z,25.97
2018-12-02T07:22:38.402Z,25.88
2018-12-02T07:23:20.370Z,26.04
2018-12-02T07:23:55.760Z,26.29
2018-12-02T07:24:31.432Z,26.44
2018-12-02T07:25:08.160Z,26.48
2018-12-02T07:25:43.768Z,26.41
2018-12-02T07:26:19.052Z,26.05
2018-12-02T07:26:54.515Z,26.36
2018-12-02T07:27:29.895Z,26.12
2018-12-02T07:28:05.095Z,25.73
2018-12-02T07:28:40.609Z,25.79
2018-12-02T07:29:15.836Z,25.92
2018-12-02T07:29:51.359Z,26.26
2018-12-02T07:30:26.878Z,26.42
2018-12-02T07:31:02.140Z,25.86
2018-12-02T07:31:37.667Z,25.80
2018-12-02T07:32:13.093Z,26.29
2018-12-02T07:32:48.471Z,25.69
2018-12-02T07:33:24.007Z,25.75
2018-12-02T07:33:59.450Z,25.78
2018-12-02T07:34:34.797Z,26.42
2018-12-02T07:35:13.092Z,26.38
2018-12-02T07:35:48.570Z,25.97
2018-12-02T07:36:24.058Z,25.75
2018-12-02T07:37:02.180Z,25.72
2018-12-02T07:37:37.691Z,25.73
2018-12-02T07:38:24.362Z,26.36
2018-12-02T07:39:10.166Z,25.65
2018-12-02T07:39:52.769Z,25.71
2018-12-02T07:40:32.580Z,26.27
2018-12-02T07:41:11.118Z,25.97
2018-12-02T07:41:46.966Z,25.90
2018-12-02T07:42:22.286Z,26.37
2018-12-02T07:42:57.853Z,26.27
2018-12-02T07:43:33.179Z,26.20